Ischia Jet — IOBI — position and weather

sailwx.info

Track history (hours):
 
Tides and Currents Weather Stations Pressure Air Temp Water Temp Dewpoint Dewpoint Depression Visibility Wind Speed Wind Dir Waves Ship Positions

Ischia Jet

Last reported at 2015-May-25 09:26 UTC. Time now 2015-May-26 01:43 UTC.
Position N 40°50' E 014°17'.

Length 42 m; draft 1.2 m.

Type: Passenger vessel. MMSI: 247048700.

Date/timePositionNaut miles runAvg speedWind from/ knotsBaromVisibWave heightAir tempDewpointWater temp
2015-May-25 09:26N 40°50' E 014°17'1618.2
2015-May-25 08:32N 40°33' E 014°14'1210.9
2015-May-25 07:26N 40°38' E 014°29'2 0.2
2015-May-24 16:12N 40°36' E 014°32'1014.9
2015-May-24 15:33N 40°34' E 014°20'5 4.8
2015-May-24 14:33N 40°38' E 014°23'8 7.7
2015-May-24 13:33N 40°33' E 014°14'0 0.0
2015-May-24 12:33N 40°33' E 014°14'0 0.0
2015-May-24 11:33N 40°33' E 014°14'6 6.4
2015-May-24 10:33N 40°40' E 014°16'10 8.0
2015-May-24 09:20N 40°49' E 014°17'1620.5
2015-May-24 08:33N 40°33' E 014°14'12 9.3
2015-May-24 07:15N 40°37' E 014°29'2 0.1
2015-May-23 16:09N 40°36' E 014°32'1014.5
2015-May-23 15:28N 40°34' E 014°19'2 2.3
2015-May-23 14:29N 40°36' E 014°17'3 3.6
2015-May-23 13:33N 40°33' E 014°14'0 0.0
2015-May-23 12:33N 40°33' E 014°14'0 0.0
2015-May-23 11:33N 40°33' E 014°14'6 5.9
2015-May-23 10:33N 40°39' E 014°15'9 6.9
2015-May-23 09:16N 40°48' E 014°17'1520.6
2015-May-23 08:33N 40°33' E 014°14'1110.6
2015-May-23 07:29N 40°37' E 014°29'11 0.6
2015-May-22 13:33N 40°34' E 014°15'14 6.9
2015-May-22 11:29N 40°49' E 014°17'1516.7
2015-May-22 10:34N 40°33' E 014°14'0 0.0
2015-May-22 09:31N 40°33' E 014°14'0 0.0
2015-May-22 08:32N 40°33' E 014°14'1210.0
2015-May-22 07:20N 40°37' E 014°29'2 0.1
2015-May-21 16:05N 40°36' E 014°31'915.9
2015-May-21 15:32N 40°34' E 014°20'4 4.4
2015-May-21 14:32N 40°38' E 014°22'8 7.9
2015-May-21 13:34N 40°33' E 014°14'0 0.0
2015-May-21 12:34N 40°33' E 014°14'4 3.9
2015-May-21 11:34N 40°37' E 014°15'1312.0
2015-May-21 10:29N 40°50' E 014°16'1716.7
2015-May-21 09:29N 40°33' E 014°14'0 0.0
2015-May-21 08:32N 40°33' E 014°14'1110.3
2015-May-21 07:30N 40°36' E 014°28'3 0.2
2015-May-20 16:15N 40°36' E 014°32'1115.0
2015-May-20 15:31N 40°34' E 014°18'5 5.7
2015-May-20 14:33N 40°38' E 014°23'6 6.0
2015-May-20 13:33N 40°35' E 014°16'15 7.1
2015-May-20 11:31N 40°50' E 014°17'1615.8
2015-May-20 10:29N 40°33' E 014°14'0 0.0
2015-May-20 09:33N 40°33' E 014°14'0 0.0
2015-May-20 08:32N 40°33' E 014°14'12 9.7
2015-May-20 07:15N 40°37' E 014°30'2 0.1
2015-May-19 16:10N 40°36' E 014°33'1015.7
2015-May-19 15:33N 40°34' E 014°21'4 4.1
2015-May-19 14:33N 40°38' E 014°23'8 7.3
2015-May-19 13:31N 40°33' E 014°14'1 1.4
2015-May-19 12:33N 40°35' E 014°14'1 1.3
2015-May-19 11:32N 40°33' E 014°14'7 7.4
2015-May-19 10:33N 40°41' E 014°16'9 7.6
2015-May-19 09:20N 40°50' E 014°17'1620.9
2015-May-19 08:33N 40°33' E 014°14'13 0.8
2015-May-18 16:10N 40°36' E 014°31'914.9
2015-May-18 15:33N 40°34' E 014°20'5 4.4
2015-May-18 14:31N 40°38' E 014°23'8 7.8
2015-May-18 13:32N 40°33' E 014°14'0 0.0
2015-May-18 12:33N 40°33' E 014°14'5 5.3
2015-May-18 11:32N 40°39' E 014°16'11 9.5
2015-May-18 10:24N 40°49' E 014°17'1618.6
2015-May-18 09:32N 40°33' E 014°14'0 0.0
2015-May-18 08:33N 40°33' E 014°14'12 9.7
2015-May-18 07:19N 40°38' E 014°29'3 0.2
2015-May-17 16:10N 40°36' E 014°32'1015.5
2015-May-17 15:30N 40°34' E 014°19'2 2.1
2015-May-17 14:32N 40°34' E 014°16'2 1.6
2015-May-17 13:34N 40°33' E 014°14'3 3.4
2015-May-17 12:33N 40°36' E 014°17'13 4.2
2015-May-17 09:22N 40°50' E 014°17'1619.0
2015-May-17 08:30N 40°33' E 014°14'13 9.7
2015-May-17 07:09N 40°36' E 014°31'0 0.0
2015-May-15 16:16N 40°36' E 014°32'1013.3
2015-May-15 15:32N 40°34' E 014°19'3 2.9
2015-May-15 14:33N 40°34' E 014°15'1 0.9
2015-May-15 13:33N 40°33' E 014°14'0 0.0
2015-May-15 12:33N 40°33' E 014°14'0 0.0
2015-May-15 11:33N 40°33' E 014°14'8 7.7
2015-May-15 10:33N 40°41' E 014°18'  
Track history (hours):
 
Tides and Currents Weather Stations Pressure Air Temp Water Temp Dewpoint Dewpoint Depression Visibility Wind Speed Wind Dir Waves Ship Positions

Ischia Jet

Last reported at 2015-May-25 09:26 UTC. Time now 2015-May-26 01:43 UTC.
Position N 40°50' E 014°17'.

Length 42 m; draft 1.2 m.

Type: Passenger vessel. MMSI: 247048700.

Date/timePositionNaut miles runAvg speedWind from/ knotsBaromVisibWave heightAir tempDewpointWater temp
2015-May-25 09:26N 40°50' E 014°17'1618.2
2015-May-25 08:32N 40°33' E 014°14'1210.9
2015-May-25 07:26N 40°38' E 014°29'2 0.2
2015-May-24 16:12N 40°36' E 014°32'1014.9
2015-May-24 15:33N 40°34' E 014°20'5 4.8
2015-May-24 14:33N 40°38' E 014°23'8 7.7
2015-May-24 13:33N 40°33' E 014°14'0 0.0
2015-May-24 12:33N 40°33' E 014°14'0 0.0
2015-May-24 11:33N 40°33' E 014°14'6 6.4
2015-May-24 10:33N 40°40' E 014°16'10 8.0
2015-May-24 09:20N 40°49' E 014°17'1620.5
2015-May-24 08:33N 40°33' E 014°14'12 9.3
2015-May-24 07:15N 40°37' E 014°29'2 0.1
2015-May-23 16:09N 40°36' E 014°32'1014.5
2015-May-23 15:28N 40°34' E 014°19'2 2.3
2015-May-23 14:29N 40°36' E 014°17'3 3.6
2015-May-23 13:33N 40°33' E 014°14'0 0.0
2015-May-23 12:33N 40°33' E 014°14'0 0.0
2015-May-23 11:33N 40°33' E 014°14'6 5.9
2015-May-23 10:33N 40°39' E 014°15'9 6.9
2015-May-23 09:16N 40°48' E 014°17'1520.6
2015-May-23 08:33N 40°33' E 014°14'1110.6
2015-May-23 07:29N 40°37' E 014°29'11 0.6
2015-May-22 13:33N 40°34' E 014°15'14 6.9
2015-May-22 11:29N 40°49' E 014°17'1516.7
2015-May-22 10:34N 40°33' E 014°14'0 0.0
2015-May-22 09:31N 40°33' E 014°14'0 0.0
2015-May-22 08:32N 40°33' E 014°14'1210.0
2015-May-22 07:20N 40°37' E 014°29'2 0.1
2015-May-21 16:05N 40°36' E 014°31'915.9
2015-May-21 15:32N 40°34' E 014°20'4 4.4
2015-May-21 14:32N 40°38' E 014°22'8 7.9
2015-May-21 13:34N 40°33' E 014°14'0 0.0
2015-May-21 12:34N 40°33' E 014°14'4 3.9
2015-May-21 11:34N 40°37' E 014°15'1312.0
2015-May-21 10:29N 40°50' E 014°16'1716.7
2015-May-21 09:29N 40°33' E 014°14'0 0.0
2015-May-21 08:32N 40°33' E 014°14'1110.3
2015-May-21 07:30N 40°36' E 014°28'3 0.2
2015-May-20 16:15N 40°36' E 014°32'1115.0
2015-May-20 15:31N 40°34' E 014°18'5 5.7
2015-May-20 14:33N 40°38' E 014°23'6 6.0
2015-May-20 13:33N 40°35' E 014°16'15 7.1
2015-May-20 11:31N 40°50' E 014°17'1615.8
2015-May-20 10:29N 40°33' E 014°14'0 0.0
2015-May-20 09:33N 40°33' E 014°14'0 0.0
2015-May-20 08:32N 40°33' E 014°14'12 9.7
2015-May-20 07:15N 40°37' E 014°30'2 0.1
2015-May-19 16:10N 40°36' E 014°33'1015.7
2015-May-19 15:33N 40°34' E 014°21'4 4.1
2015-May-19 14:33N 40°38' E 014°23'8 7.3
2015-May-19 13:31N 40°33' E 014°14'1 1.4
2015-May-19 12:33N 40°35' E 014°14'1 1.3
2015-May-19 11:32N 40°33' E 014°14'7 7.4
2015-May-19 10:33N 40°41' E 014°16'9 7.6
2015-May-19 09:20N 40°50' E 014°17'1620.9
2015-May-19 08:33N 40°33' E 014°14'13 0.8
2015-May-18 16:10N 40°36' E 014°31'914.9
2015-May-18 15:33N 40°34' E 014°20'5 4.4
2015-May-18 14:31N 40°38' E 014°23'8 7.8
2015-May-18 13:32N 40°33' E 014°14'0 0.0
2015-May-18 12:33N 40°33' E 014°14'5 5.3
2015-May-18 11:32N 40°39' E 014°16'11 9.5
2015-May-18 10:24N 40°49' E 014°17'1618.6
2015-May-18 09:32N 40°33' E 014°14'0 0.0
2015-May-18 08:33N 40°33' E 014°14'12 9.7
2015-May-18 07:19N 40°38' E 014°29'3 0.2
2015-May-17 16:10N 40°36' E 014°32'1015.5
2015-May-17 15:30N 40°34' E 014°19'2 2.1
2015-May-17 14:32N 40°34' E 014°16'2 1.6
2015-May-17 13:34N 40°33' E 014°14'3 3.4
2015-May-17 12:33N 40°36' E 014°17'13 4.2
2015-May-17 09:22N 40°50' E 014°17'1619.0
2015-May-17 08:30N 40°33' E 014°14'13 9.7
2015-May-17 07:09N 40°36' E 014°31'0 0.0
2015-May-15 16:16N 40°36' E 014°32'1013.3
2015-May-15 15:32N 40°34' E 014°19'3 2.9
2015-May-15 14:33N 40°34' E 014°15'1 0.9
2015-May-15 13:33N 40°33' E 014°14'0 0.0
2015-May-15 12:33N 40°33' E 014°14'0 0.0
2015-May-15 11:33N 40°33' E 014°14'8 7.7
2015-May-15 10:33N 40°41' E 014°18'  

Dump ship's entire track history